Marquette, Kansas
Current Conditions -  °F | °C
As of 2:53 PM on Sunday 23 Nov 2014 (Local Time) from KSLN Reporting Station
Light Rain Light Rain  
Wind Chill: 32°   Ceiling: 3800
Heat Index: 43°   Visibility: 9mi
Dew Point: 38°   Wind: 31mph
Humidity: 82%   Direction: 350°N
Pressure: 29.52"   Gusts: 40mph
Location:  38.56°N, 97.83°W
Report Text: KSLN 232053Z 35027G35KT 9SM -RA FEW017 SCT024 OVC038 06/03 A2952 RMK AO2 PK WND 35039/1959 SLP997 P0005 60008 T00610033 53011
Loading
Personal Weather Stations






























Interactive Weather Map New forecast layout! Learn more

10-Day Weather Forecast

Advertisements
Track Severe Weather on mobile